• Join FlightAware (Why Join?)
  • Login
  • US Flag 
08:11PM EST


 

Airport Tracker/Info


-or-


 

Live Flight TrackerFlight Track Log ✈ JBU1329 ✈ 17-Jun-2013 ✈ KBOS - KBWI

Flight Track Log - Related Links

Times and Time Zones

All times are in EDT time to prevent confusion due to time zone crossing. See the JBU1329 flight status page for this flight to view local times or setup timezone preferences in your user account.

Time Position Orientation Groundspeed Altitude Reporting Facility
EDT Latitude Longitude Course Direction KTS MPH feet Rate Location/Type
09:22AM 42.3500 -71.0167 240° Southwest 195 224 600  Level KA90
09:25AM 42.3924 -70.7424 144° Southeast  Level FlightAware Approximate
09:25AM 42.3267 -70.8422 100° East 231 266 5,900  Level Boston Center
09:26AM 42.3020 -70.7171 172° South  Level FlightAware Approximate
09:26AM 42.3086 -70.7417 104° East 260 299 9,200  Level Boston Center
09:27AM 42.2388 -70.8084 228° Southwest  Level FlightAware Approximate
09:27AM 42.2311 -70.7297 173° South 216 249 12,200  Level Boston Center
09:28AM 42.1907 -70.9162 240° Southwest  Level FlightAware Approximate
09:28AM 42.1908 -70.8261 241° Southwest 182 209 13,800  Level Boston Center
09:29AM 42.1756 -70.9300 259° West 256 295 16,500 2,700 Climbing Boston Center
09:30AM 42.1628 -71.0647 263° West 318 366 19,200 2,400 Climbing Boston Center
09:31AM 42.1456 -71.1911 260° West 341 392 21,400 2,100 Climbing Boston Center
09:32AM 42.1281 -71.3203 260° West 351 404 23,500 2,040 Climbing Boston Center
09:33AM 42.1125 -71.4494 261° West 356 410 25,500 1,800 Climbing Boston Center
09:34AM 42.0928 -71.5783 258° West 356 410 27,100 1,500 Climbing Boston Center
09:35AM 42.0750 -71.7183 260° West 356 410 28,500 1,320 Climbing Boston Center
09:36AM 42.0550 -71.8531 259° West 368 423 29,800 1,380 Climbing Boston Center
09:37AM 42.0161 -71.9847 248° West 373 429 31,300 1,080 Climbing Boston Center
09:38AM 41.9622 -72.1078 240° Southwest 373 429 32,000 300 Climbing Boston Center
09:39AM 41.9250 -72.1889 238° Southwest 378 435 32,000  Level Boston Center
09:40AM 41.8564 -72.3342 238° Southwest 383 441 32,000  Level Boston Center
09:41AM 41.8003 -72.4594 239° Southwest 394 453 32,000  Level Boston Center
09:42AM 41.7397 -72.5875 238° Southwest 399 459 32,000  Level Boston Center
09:43AM 41.6831 -72.7181 240° Southwest 410 472 32,000  Level Boston Center
09:44AM 41.6244 -72.8456 238° Southwest 410 472 32,000  Level Boston Center
09:45AM 41.5656 -72.9728 238° Southwest 410 472 32,000  Level Boston Center
09:46AM 41.5086 -73.0969 239° Southwest 404 465 32,000  Level Boston Center
09:48AM 41.3656 -73.4056 238° Southwest 404 465 32,000  Level New York Center
09:49AM 41.3064 -73.5331 238° Southwest 404 465 32,000  Level New York Center
09:50AM 41.2408 -73.6572 235° Southwest 409 471 32,000  Level New York Center
09:51AM 41.1672 -73.7753 230° Southwest 416 479 32,000  Level New York Center
09:52AM 41.0975 -73.8933 232° Southwest 421 484 32,000  Level New York Center
09:53AM 41.0297 -74.0086 232° Southwest 421 484 32,000 -60 Level New York Center
09:54AM 40.9619 -74.1261 233° Southwest 410 472 31,900 -900 Descending New York Center
09:55AM 40.8942 -74.2325 230° Southwest 410 472 30,300 -1,800 Descending New York Center
09:56AM 40.8131 -74.3656 231° Southwest 417 480 28,300 -1,200 Descending New York Center
09:57AM 40.7408 -74.4822 231° Southwest 422 486 28,000 -600 Descending New York Center
09:58AM 40.6867 -74.6133 241° Southwest 411 473 27,200 -960 Descending New York Center
09:59AM 40.6453 -74.7314 245° Southwest 399 459 26,100 -1,140 Descending New York Center
10:00AM 40.5947 -74.8653 244° Southwest 388 447 25,000 -1,020 Descending New York Center
10:01AM 40.5533 -74.9775 244° Southwest 388 447 24,100 -1,380 Descending New York Center
10:02AM 40.4992 -75.0942 239° Southwest 382 440 22,300 -2,100 Descending New York Center
10:03AM 40.4161 -75.1981 224° Southwest 377 434 20,000 -2,160 Descending New York Center
10:04AM 40.3436 -75.2914 224° Southwest 370 426 18,100 -1,020 Descending New York Center
10:05AM 40.2714 -75.3847 225° Southwest 370 426 18,000 -60 Descending New York Center
10:06AM 40.1967 -75.4803 224° Southwest 377 434 18,000  Level New York Center
10:07AM 40.1308 -75.5600 223° Southwest 377 434 18,000  Level New York Center
10:08AM 40.0539 -75.6603 225° Southwest 368 423 18,000  Level New York Center
10:09AM 39.9858 -75.7422 223° Southwest 368 423 18,000  Level New York Center
10:10AM 39.9067 -75.8394 223° Southwest 368 423 18,000 -1,140 Level New York Center
10:12AM 39.7833 -76.0000 225° Southwest 349 402 15,000 -1,980 Descending Potomac TRACON
10:13AM 39.7167 -76.0833 224° Southwest 334 384 12,800 -1,500 Descending Potomac TRACON
10:14AM 39.6667 -76.1667 232° Southwest 321 369 12,000 -960 Descending Potomac TRACON
10:15AM 39.6000 -76.2333 218° Southwest 304 350 10,900 -1,380 Descending Potomac TRACON
10:16AM 39.5333 -76.3000 218° Southwest 281 323 9,300 -1,620 Descending Potomac TRACON
10:17AM 39.4667 -76.3667 218° Southwest 276 318 7,600 -1,680 Descending Potomac TRACON
10:18AM 39.4000 -76.4167 210° Southwest 280 322 5,800 -1,560 Descending Potomac TRACON
10:19AM 39.3333 -76.4333 191° South 271 312 4,500 -1,500 Descending Potomac TRACON
10:20AM 39.2667 -76.4667 201° Southwest 268 308 2,900 -1,260 Descending Potomac TRACON
10:21AM 39.2000 -76.5000 201° Southwest 252 290 2,000 -480 Descending Potomac TRACON
10:22AM 39.1500 -76.5333 207° Southwest 198 228 2,000  Level Potomac TRACON